createdAt,value
2019-04-11T00:01:34.161Z,68.87
2019-04-11T00:03:54.719Z,59.90
2019-04-11T00:06:25.651Z,60.43
2019-04-11T00:08:58.498Z,60.17
2019-04-11T00:11:30.202Z,59.77
2019-04-11T00:14:01.034Z,59.30
2019-04-11T00:16:32.926Z,60.50
2019-04-11T00:19:05.161Z,51.80
2019-04-11T00:21:35.746Z,55.23
2019-04-11T00:24:07.069Z,56.10
2019-04-11T00:26:38.186Z,56.07
2019-04-11T00:29:10.172Z,53.47
2019-04-11T00:31:41.107Z,96.57
2019-04-11T00:34:12.950Z,87.77
2019-04-11T00:36:44.814Z,94.13
2019-04-11T00:39:15.674Z,163.70
2019-04-11T00:41:46.359Z,92.00
2019-04-11T00:44:16.944Z,83.47
2019-04-11T00:46:48.767Z,75.23
2019-04-11T00:49:19.496Z,71.37
2019-04-11T00:51:50.080Z,66.93
2019-04-11T00:54:20.975Z,60.60
2019-04-11T00:56:52.673Z,83.47
2019-04-11T00:59:23.233Z,84.00
2019-04-11T01:01:53.832Z,76.07
2019-04-11T01:04:25.485Z,59.40
2019-04-11T01:06:56.457Z,56.73
2019-04-11T01:09:27.040Z,58.17
2019-04-11T01:11:59.100Z,54.90
2019-04-11T01:14:29.965Z,49.43
2019-04-11T01:17:01.619Z,53.77
2019-04-11T01:19:33.007Z,49.70
2019-04-11T01:22:03.711Z,45.23
2019-04-11T01:24:35.605Z,50.27
2019-04-11T01:27:07.698Z,56.37
2019-04-11T01:29:38.288Z,51.70
2019-04-11T01:32:10.661Z,49.57
2019-04-11T01:34:41.186Z,49.73
2019-04-11T01:37:13.389Z,51.67
2019-04-11T01:40:01.347Z,47.93
2019-04-11T01:42:33.437Z,45.03
2019-04-11T01:45:05.496Z,45.43
2019-04-11T01:47:55.424Z,42.17
2019-04-11T01:50:27.650Z,38.80
2019-04-11T01:52:58.468Z,49.23
2019-04-11T01:55:29.983Z,64.33
2019-04-11T01:58:00.682Z,46.67
2019-04-11T02:00:48.735Z,48.00
2019-04-11T02:03:21.258Z,42.33
2019-04-11T02:05:51.859Z,42.10
2019-04-11T02:08:23.025Z,43.83
2019-04-11T02:10:53.619Z,36.17
2019-04-11T02:13:24.376Z,38.23
2019-04-11T02:15:56.820Z,34.53
2019-04-11T02:18:27.643Z,36.77
2019-04-11T02:20:58.310Z,41.53
2019-04-11T02:23:47.623Z,35.47
2019-04-11T02:26:20.926Z,33.87
2019-04-11T02:28:51.504Z,36.53
2019-04-11T02:31:23.099Z,35.50
2019-04-11T02:33:55.246Z,34.60
2019-04-11T02:36:27.321Z,31.20
2019-04-11T02:39:02.179Z,31.63
2019-04-11T02:41:32.013Z,34.67
2019-04-11T02:44:03.624Z,33.53
2019-04-11T02:46:42.531Z,35.60
2019-04-11T02:49:08.110Z,35.83
2019-04-11T02:51:39.269Z,31.30
2019-04-11T02:54:11.408Z,30.03
2019-04-11T02:56:43.564Z,31.03
2019-04-11T02:59:15.479Z,30.03
2019-04-11T03:01:46.519Z,34.03
2019-04-11T03:04:20.055Z,32.00
2019-04-11T03:06:51.986Z,109.93
2019-04-11T03:09:24.149Z,95.77
2019-04-11T03:11:56.657Z,57.77
2019-04-11T03:14:29.323Z,50.50
2019-04-11T03:17:11.972Z,43.50
2019-04-11T03:19:46.842Z,44.27
2019-04-11T03:22:05.619Z,44.97
2019-04-11T03:24:38.390Z,43.37
2019-04-11T03:27:11.096Z,40.73
2019-04-11T03:29:43.113Z,38.37
2019-04-11T03:33:02.226Z,34.40
2019-04-11T03:37:47.765Z,39.97
2019-04-11T03:40:11.848Z,33.90
2019-04-11T03:42:41.667Z,32.40
2019-04-11T03:45:20.716Z,35.13
2019-04-11T03:47:40.977Z,37.73
2019-04-11T03:50:08.580Z,64.80
2019-04-11T03:52:36.575Z,52.00
2019-04-11T03:55:08.590Z,36.10
2019-04-11T03:57:41.565Z,43.80
2019-04-11T04:00:14.756Z,43.70
2019-04-11T04:02:46.787Z,48.77
2019-04-11T04:05:18.140Z,44.07
2019-04-11T04:07:49.432Z,55.63
2019-04-11T04:10:23.414Z,51.17
2019-04-11T04:12:56.553Z,49.33
2019-04-11T04:15:41.030Z,41.17
2019-04-11T04:18:05.859Z,31.87
2019-04-11T04:20:42.387Z,43.70
2019-04-11T04:23:16.632Z,38.57
2019-04-11T04:25:49.256Z,54.90
2019-04-11T04:28:21.469Z,95.37
2019-04-11T04:30:53.857Z,227.87
2019-04-11T04:33:26.486Z,172.30
2019-04-11T04:35:58.026Z,242.57
2019-04-11T04:38:29.585Z,104.77
2019-04-11T04:41:16.311Z,190.57
2019-04-11T04:43:34.063Z,226.50
2019-04-11T04:46:25.176Z,236.17
2019-04-11T04:48:38.910Z,134.33
2019-04-11T04:51:11.986Z,76.97
2019-04-11T04:53:43.111Z,77.33
2019-04-11T04:56:15.381Z,64.30
2019-04-11T04:58:46.693Z,73.60
2019-04-11T05:01:19.369Z,64.00
2019-04-11T05:03:51.042Z,58.57
2019-04-11T05:06:21.761Z,60.37
2019-04-11T05:08:53.922Z,48.97
2019-04-11T05:11:26.089Z,57.03
2019-04-11T05:13:58.594Z,36.97
2019-04-11T05:16:30.815Z,41.47
2019-04-11T05:19:01.876Z,36.43
2019-04-11T05:21:33.267Z,27.60
2019-04-11T05:24:04.110Z,34.00
2019-04-11T05:26:35.476Z,28.47
2019-04-11T05:29:06.435Z,30.23
2019-04-11T05:31:37.037Z,50.20
2019-04-11T05:34:07.827Z,135.67
2019-04-11T05:36:40.788Z,96.63
2019-04-11T05:39:11.470Z,104.73
2019-04-11T05:41:46.649Z,93.33
2019-04-11T05:44:16.738Z,138.90
2019-04-11T05:46:54.946Z,149.70
2019-04-11T05:49:29.080Z,154.50
2019-04-11T05:52:02.096Z,134.97
2019-04-11T05:54:49.032Z,56.50
2019-04-11T05:57:23.850Z,95.50
2019-04-11T05:59:54.341Z,102.37
2019-04-11T06:02:33.726Z,36.13
2019-04-11T06:05:09.440Z,33.93
2019-04-11T06:07:46.195Z,44.90
2019-04-11T06:10:31.760Z,36.43
2019-04-11T06:13:07.933Z,24.63
2019-04-11T06:15:42.817Z,35.83
2019-04-11T06:18:25.944Z,22.73
2019-04-11T06:20:51.505Z,26.83
2019-04-11T06:23:29.919Z,21.17
2019-04-11T06:26:14.690Z,20.20
2019-04-11T06:28:45.291Z,28.10
2019-04-11T06:31:26.493Z,88.67
2019-04-11T06:34:05.040Z,50.63
2019-04-11T06:36:46.878Z,17.13
2019-04-11T06:39:27.276Z,19.20
2019-04-11T06:42:08.860Z,26.03
2019-04-11T06:44:58.465Z,19.07
2019-04-11T06:47:40.921Z,11.93
2019-04-11T06:50:13.903Z,17.80
2019-04-11T06:52:46.179Z,10.80
2019-04-11T06:55:22.443Z,9.60
2019-04-11T06:57:54.731Z,13.50
2019-04-11T07:00:25.877Z,10.80
2019-04-11T07:03:01.385Z,10.57
2019-04-11T07:05:35.027Z,8.50
2019-04-11T07:08:07.690Z,4.77
2019-04-11T07:10:40.159Z,7.30
2019-04-11T07:13:12.859Z,6.97
2019-04-11T07:15:46.341Z,6.30
2019-04-11T07:18:35.711Z,6.60
2019-04-11T07:21:08.509Z,8.77
2019-04-11T07:23:57.633Z,8.73
2019-04-11T07:26:39.423Z,6.10
2019-04-11T07:29:21.538Z,6.27
2019-04-11T07:32:04.737Z,7.50
2019-04-11T07:34:54.419Z,5.23
2019-04-11T07:37:30.241Z,5.10
2019-04-11T07:40:15.997Z,10.03
2019-04-11T07:43:11.532Z,7.57
2019-04-11T07:45:43.302Z,5.47
2019-04-11T07:48:19.354Z,6.30
2019-04-11T07:50:53.612Z,5.13
2019-04-11T07:53:24.781Z,3.77
2019-04-11T07:55:55.498Z,5.23
2019-04-11T07:58:30.915Z,5.20
2019-04-11T08:01:10.400Z,5.23
2019-04-11T08:03:42.636Z,7.07
2019-04-11T08:06:20.824Z,7.07
2019-04-11T08:09:09.715Z,7.50
2019-04-11T08:11:42.347Z,5.17
2019-04-11T08:14:18.572Z,10.53
2019-04-11T08:16:59.952Z,2.70
2019-04-11T08:19:49.089Z,4.20
2019-04-11T08:22:21.380Z,5.73
2019-04-11T08:24:53.631Z,6.23
2019-04-11T08:27:35.770Z,4.73
2019-04-11T08:30:08.696Z,3.50
2019-04-11T08:32:46.946Z,3.17
2019-04-11T08:35:19.837Z,6.33
2019-04-11T08:38:02.721Z,5.50
2019-04-11T08:40:38.092Z,4.57
2019-04-11T08:43:19.336Z,10.57
2019-04-11T08:45:51.593Z,23.30
2019-04-11T08:48:22.890Z,4.53
2019-04-11T08:50:55.083Z,5.97
2019-04-11T08:53:40.679Z,8.60
2019-04-11T08:56:12.453Z,4.50
2019-04-11T08:59:13.353Z,4.20
2019-04-11T09:01:44.269Z,3.03
2019-04-11T09:04:36.444Z,4.97
2019-04-11T09:07:10.306Z,9.70
2019-04-11T09:09:48.912Z,15.97
2019-04-11T09:12:20.560Z,6.67
2019-04-11T09:14:54.753Z,3.67
2019-04-11T09:17:28.138Z,2.90
2019-04-11T09:20:07.347Z,3.50
2019-04-11T09:22:41.483Z,3.03
2019-04-11T09:25:15.208Z,9.37
2019-04-11T09:27:57.513Z,4.77
2019-04-11T09:30:43.039Z,3.93
2019-04-11T09:33:31.719Z,4.37
2019-04-11T09:36:19.966Z,5.17
2019-04-11T09:39:07.656Z,8.37
2019-04-11T09:41:56.603Z,4.43
2019-04-11T09:44:28.882Z,4.40
2019-04-11T09:47:04.102Z,4.63
2019-04-11T09:49:39.598Z,4.87
2019-04-11T09:52:12.257Z,3.67
2019-04-11T09:55:02.846Z,3.00
2019-04-11T09:57:36.565Z,14.00
2019-04-11T10:00:22.930Z,2.73
2019-04-11T10:02:58.729Z,8.67
2019-04-11T10:05:46.766Z,10.90
2019-04-11T10:08:22.879Z,8.73
2019-04-11T10:11:10.178Z,3.77
2019-04-11T10:13:44.933Z,2.93
2019-04-11T10:16:24.161Z,5.00
2019-04-11T10:19:13.846Z,3.77
2019-04-11T10:21:59.398Z,8.90
2019-04-11T10:24:40.958Z,3.20
2019-04-11T10:27:14.232Z,3.40
2019-04-11T10:30:03.105Z,6.50
2019-04-11T10:32:43.437Z,4.30
2019-04-11T10:35:32.552Z,5.87
2019-04-11T10:38:05.309Z,7.50
2019-04-11T10:40:56.675Z,5.57
2019-04-11T10:43:29.211Z,5.73
2019-04-11T10:46:01.496Z,7.77
2019-04-11T10:48:39.309Z,14.10
2019-04-11T10:51:14.926Z,7.47
2019-04-11T10:53:47.045Z,10.90
2019-04-11T10:56:37.277Z,4.93
2019-04-11T10:59:09.079Z,4.07
2019-04-11T11:02:00.270Z,4.10
2019-04-11T11:04:36.747Z,4.63
2019-04-11T11:07:11.491Z,5.03
2019-04-11T11:09:44.406Z,10.47
2019-04-11T11:12:19.237Z,3.20
2019-04-11T11:14:52.398Z,9.00
2019-04-11T11:17:54.916Z,7.60
2019-04-11T11:20:21.545Z,11.27
2019-04-11T11:22:57.655Z,4.37
2019-04-11T11:25:48.535Z,4.30
2019-04-11T11:28:18.582Z,9.90
2019-04-11T11:30:52.050Z,4.23
2019-04-11T11:33:25.235Z,6.93
2019-04-11T11:36:02.678Z,7.60
2019-04-11T11:38:33.681Z,5.57
2019-04-11T11:41:22.699Z,6.63
2019-04-11T11:43:57.086Z,6.03
2019-04-11T11:46:46.541Z,13.10
2019-04-11T11:49:36.276Z,11.53
2019-04-11T11:51:58.038Z,4.40
2019-04-11T11:54:29.310Z,10.80
2019-04-11T11:57:02.406Z,6.70
2019-04-11T11:59:34.771Z,9.77
2019-04-11T12:02:08.481Z,3.93
2019-04-11T12:04:44.679Z,25.73
2019-04-11T12:07:21.021Z,4.70
2019-04-11T12:10:11.158Z,16.67
2019-04-11T12:12:44.186Z,97.17
2019-04-11T12:15:32.978Z,10.43
2019-04-11T12:18:09.567Z,9.23
2019-04-11T12:20:57.429Z,10.83
2019-04-11T12:23:29.559Z,16.60
2019-04-11T12:26:01.731Z,14.80
2019-04-11T12:28:40.160Z,14.53
2019-04-11T12:31:11.534Z,27.17
2019-04-11T12:34:00.094Z,128.57
2019-04-11T12:36:32.576Z,136.53
2019-04-11T12:39:14.129Z,29.10
2019-04-11T12:41:58.675Z,35.43
2019-04-11T12:44:31.033Z,78.67
2019-04-11T12:47:03.330Z,37.10
2019-04-11T12:49:35.542Z,32.90
2019-04-11T12:52:26.302Z,15.50
2019-04-11T12:55:04.219Z,24.07
2019-04-11T12:57:54.414Z,35.47
2019-04-11T13:00:35.875Z,12.17
2019-04-11T13:03:24.655Z,6.20
2019-04-11T13:05:56.866Z,10.23
2019-04-11T13:08:29.102Z,6.40
2019-04-11T13:11:00.924Z,7.87
2019-04-11T13:13:33.475Z,10.90
2019-04-11T13:16:12.344Z,10.33
2019-04-11T13:18:59.259Z,50.07
2019-04-11T13:21:31.690Z,51.30
2019-04-11T13:24:10.263Z,66.63
2019-04-11T13:26:58.782Z,37.60
2019-04-11T13:29:31.020Z,17.77
2019-04-11T13:32:21.686Z,37.40
2019-04-11T13:34:53.926Z,47.77
2019-04-11T13:37:35.271Z,42.50
2019-04-11T13:40:20.276Z,25.67
2019-04-11T13:43:08.448Z,46.20
2019-04-11T13:45:40.911Z,29.30
2019-04-11T13:48:29.562Z,21.63
2019-04-11T13:51:01.839Z,27.37
2019-04-11T13:53:43.428Z,118.80
2019-04-11T13:56:14.206Z,26.47
2019-04-11T13:58:46.664Z,14.73
2019-04-11T14:01:17.647Z,13.33
2019-04-11T14:04:03.010Z,21.07
2019-04-11T14:06:33.729Z,26.63
2019-04-11T14:09:18.274Z,54.20
2019-04-11T14:11:50.323Z,19.53
2019-04-11T14:14:22.830Z,23.20
2019-04-11T14:16:55.143Z,15.73
2019-04-11T14:19:33.116Z,26.50
2019-04-11T14:22:07.025Z,22.33
2019-04-11T14:24:43.940Z,31.63
2019-04-11T14:27:20.129Z,22.93
2019-04-11T14:29:52.442Z,16.07
2019-04-11T14:32:24.512Z,21.90
2019-04-11T14:35:04.095Z,14.80
2019-04-11T14:37:38.488Z,22.67
2019-04-11T14:40:19.064Z,28.83
2019-04-11T14:43:05.242Z,39.57
2019-04-11T14:45:45.142Z,37.00
2019-04-11T14:48:17.466Z,17.03
2019-04-11T14:50:50.618Z,27.47
2019-04-11T14:53:41.840Z,44.57
2019-04-11T14:56:14.213Z,25.10
2019-04-11T14:59:06.134Z,37.70
2019-04-11T15:01:36.610Z,32.43
2019-04-11T15:04:13.611Z,33.60
2019-04-11T15:06:54.224Z,31.53
2019-04-11T15:09:41.655Z,43.77
2019-04-11T15:12:17.650Z,56.60
2019-04-11T15:15:04.909Z,49.47
2019-04-11T15:17:37.167Z,56.53
2019-04-11T15:20:13.043Z,38.23
2019-04-11T15:22:51.445Z,53.03
2019-04-11T15:25:30.367Z,74.73
2019-04-11T15:28:12.617Z,81.50
2019-04-11T15:30:49.704Z,33.07
2019-04-11T15:33:22.694Z,339.03
2019-04-11T15:35:57.768Z,43.47
2019-04-11T15:38:46.915Z,74.27
2019-04-11T15:41:17.715Z,42.07
2019-04-11T15:43:49.930Z,79.77
2019-04-11T15:46:28.050Z,190.53
2019-04-11T15:49:03.127Z,119.77
2019-04-11T15:51:35.724Z,262.97
2019-04-11T15:54:16.818Z,47.60
2019-04-11T15:56:49.042Z,45.87
2019-04-11T15:59:34.822Z,33.30
2019-04-11T16:02:23.637Z,57.50
2019-04-11T16:05:02.756Z,24.70
2019-04-11T16:07:51.290Z,40.93
2019-04-11T16:10:23.520Z,251.87
2019-04-11T16:13:07.765Z,108.63
2019-04-11T16:15:42.498Z,47.77
2019-04-11T16:18:28.177Z,26.20
2019-04-11T16:21:00.510Z,25.70
2019-04-11T16:23:47.838Z,13.03
2019-04-11T16:26:28.758Z,22.93
2019-04-11T16:29:16.024Z,19.50
2019-04-11T16:31:47.281Z,26.17
2019-04-11T16:34:19.689Z,17.77
2019-04-11T16:36:51.588Z,23.63
2019-04-11T16:39:30.028Z,240.50
2019-04-11T16:42:02.362Z,57.53
2019-04-11T16:44:55.223Z,42.20
2019-04-11T16:47:42.907Z,70.67
2019-04-11T16:50:13.398Z,45.17
2019-04-11T16:52:43.987Z,23.57
2019-04-11T16:55:14.576Z,18.00
2019-04-11T16:57:45.184Z,22.57
2019-04-11T17:00:20.573Z,29.67
2019-04-11T17:02:54.668Z,67.27
2019-04-11T17:05:24.037Z,43.57
2019-04-11T17:08:01.481Z,37.60
2019-04-11T17:10:50.685Z,44.87
2019-04-11T17:13:23.769Z,88.70
2019-04-11T17:15:55.064Z,69.53
2019-04-11T17:18:25.696Z,41.73
2019-04-11T17:20:56.984Z,34.30
2019-04-11T17:23:27.594Z,65.93
2019-04-11T17:25:58.188Z,47.97
2019-04-11T17:28:28.794Z,33.13
2019-04-11T17:30:59.370Z,33.27
2019-04-11T17:33:30.261Z,36.20
2019-04-11T17:36:02.878Z,37.63
2019-04-11T17:38:36.924Z,57.50
2019-04-11T17:41:06.284Z,24.73
2019-04-11T17:43:36.887Z,24.40
2019-04-11T17:46:07.597Z,72.83
2019-04-11T17:48:38.372Z,44.27
2019-04-11T17:51:09.650Z,44.47
2019-04-11T17:53:40.418Z,39.23
2019-04-11T17:56:11.072Z,75.33
2019-04-11T17:58:41.836Z,32.37
2019-04-11T18:01:12.517Z,34.43
2019-04-11T18:03:43.818Z,35.23
2019-04-11T18:06:17.206Z,29.77
2019-04-11T18:08:51.328Z,30.30
2019-04-11T18:11:26.076Z,32.03
2019-04-11T18:13:56.401Z,32.13
2019-04-11T18:16:28.869Z,32.13
2019-04-11T18:19:00.051Z,35.70
2019-04-11T18:21:31.000Z,21.77
2019-04-11T18:24:01.853Z,22.63
2019-04-11T18:26:34.865Z,20.37
2019-04-11T18:29:06.009Z,25.20
2019-04-11T18:31:37.088Z,27.83
2019-04-11T18:34:08.337Z,26.33
2019-04-11T18:36:39.341Z,21.43
2019-04-11T18:39:10.660Z,36.37
2019-04-11T18:41:41.718Z,42.30
2019-04-11T18:44:13.086Z,23.70
2019-04-11T18:46:45.749Z,28.00
2019-04-11T18:49:16.819Z,24.00
2019-04-11T18:51:47.549Z,24.53
2019-04-11T18:54:19.825Z,27.67
2019-04-11T18:56:50.730Z,24.73
2019-04-11T18:59:22.822Z,30.33
2019-04-11T19:01:54.327Z,23.23
2019-04-11T19:04:32.175Z,18.13
2019-04-11T19:07:04.740Z,18.97
2019-04-11T19:09:37.736Z,18.10
2019-04-11T19:12:09.030Z,24.27
2019-04-11T19:14:39.997Z,26.37
2019-04-11T19:17:10.770Z,33.23
2019-04-11T19:19:41.722Z,23.70
2019-04-11T19:22:12.862Z,27.33
2019-04-11T19:24:43.534Z,29.13
2019-04-11T19:27:16.590Z,22.00
2019-04-11T19:29:48.574Z,25.27
2019-04-11T19:32:21.461Z,25.77
2019-04-11T19:34:52.366Z,23.60
2019-04-11T19:37:23.262Z,20.87
2019-04-11T19:39:55.694Z,19.80
2019-04-11T19:42:28.557Z,15.40
2019-04-11T19:45:02.760Z,28.50
2019-04-11T19:47:33.122Z,19.23
2019-04-11T19:50:06.224Z,19.60
2019-04-11T19:52:45.109Z,23.83
2019-04-11T19:55:20.481Z,17.57
2019-04-11T19:57:53.036Z,22.37
2019-04-11T20:00:24.201Z,18.43
2019-04-11T20:02:55.124Z,27.07
2019-04-11T20:05:25.769Z,28.80
2019-04-11T20:07:58.721Z,16.87
2019-04-11T20:10:31.598Z,20.80
2019-04-11T20:13:04.710Z,63.20
2019-04-11T20:15:37.372Z,143.57
2019-04-11T20:18:08.975Z,248.83
2019-04-11T20:20:39.706Z,42.43
2019-04-11T20:23:11.502Z,90.50
2019-04-11T20:25:45.716Z,36.20
2019-04-11T20:28:19.788Z,44.70
2019-04-11T20:30:50.892Z,76.97
2019-04-11T20:33:27.215Z,84.40
2019-04-11T20:35:57.469Z,45.33
2019-04-11T20:38:28.654Z,38.40
2019-04-11T20:41:00.396Z,52.40
2019-04-11T20:43:31.230Z,39.93
2019-04-11T20:46:02.457Z,56.23
2019-04-11T20:48:35.146Z,41.30
2019-04-11T20:51:05.672Z,31.37
2019-04-11T20:53:37.474Z,47.50
2019-04-11T20:56:09.912Z,43.40
2019-04-11T20:58:40.668Z,35.60
2019-04-11T21:01:12.529Z,66.50
2019-04-11T21:03:43.408Z,40.83
2019-04-11T21:06:14.239Z,51.57
2019-04-11T21:08:44.916Z,37.87
2019-04-11T21:11:18.753Z,38.73
2019-04-11T21:13:51.100Z,34.07
2019-04-11T21:16:21.726Z,41.73
2019-04-11T21:18:54.463Z,40.33
2019-04-11T21:21:25.161Z,27.47
2019-04-11T21:23:57.950Z,44.47
2019-04-11T21:26:29.463Z,54.17
2019-04-11T21:29:00.260Z,31.60
2019-04-11T21:31:31.748Z,51.80
2019-04-11T21:34:02.992Z,30.53
2019-04-11T21:36:33.633Z,36.70
2019-04-11T21:39:06.790Z,29.03
2019-04-11T21:41:39.541Z,21.53
2019-04-11T21:44:11.293Z,23.33
2019-04-11T21:46:42.153Z,24.07
2019-04-11T21:49:12.784Z,18.97
2019-04-11T21:51:43.321Z,20.00
2019-04-11T21:54:15.066Z,19.40
2019-04-11T21:56:49.252Z,27.53
2019-04-11T21:59:20.325Z,25.57
2019-04-11T22:01:54.113Z,29.33
2019-04-11T22:04:26.891Z,26.30
2019-04-11T22:06:56.361Z,31.03
2019-04-11T22:09:26.915Z,18.03
2019-04-11T22:11:57.466Z,22.07
2019-04-11T22:14:28.002Z,16.80
2019-04-11T22:16:58.548Z,22.63
2019-04-11T22:19:29.083Z,28.30
2019-04-11T22:21:59.623Z,23.47
2019-04-11T22:24:30.161Z,19.83
2019-04-11T22:27:00.688Z,22.57
2019-04-11T22:29:31.225Z,23.43
2019-04-11T22:32:01.856Z,22.20
2019-04-11T22:34:42.827Z,16.27
2019-04-11T22:37:13.434Z,22.43
2019-04-11T22:39:43.985Z,50.50
2019-04-11T22:42:14.675Z,29.30
2019-04-11T22:44:45.199Z,26.23
2019-04-11T22:47:15.759Z,29.20
2019-04-11T22:49:46.519Z,31.63
2019-04-11T22:52:17.429Z,26.03
2019-04-11T22:54:47.994Z,27.67
2019-04-11T22:57:18.547Z,22.27
2019-04-11T22:59:49.092Z,17.87
2019-04-11T23:02:24.243Z,25.57
2019-04-11T23:04:55.008Z,22.00
2019-04-11T23:07:25.541Z,23.03
2019-04-11T23:09:56.079Z,20.10
2019-04-11T23:12:27.574Z,20.53
2019-04-11T23:14:58.215Z,18.03
2019-04-11T23:17:28.771Z,21.93
2019-04-11T23:19:59.396Z,26.20
2019-04-11T23:22:29.930Z,26.13
2019-04-11T23:24:59.494Z,23.53
2019-04-11T23:27:29.679Z,18.53
2019-04-11T23:30:00.253Z,16.80
2019-04-11T23:32:30.807Z,16.87
2019-04-11T23:35:01.392Z,19.60
2019-04-11T23:37:33.795Z,16.93
2019-04-11T23:40:05.741Z,16.77
2019-04-11T23:42:36.311Z,18.17
2019-04-11T23:45:06.866Z,14.33
2019-04-11T23:47:37.441Z,16.20
2019-04-11T23:50:08.149Z,14.53
2019-04-11T23:52:38.727Z,10.30
2019-04-11T23:55:09.413Z,13.13
2019-04-11T23:57:39.975Z,14.37
